UAL1996 KCHS-KCLT
Flight info
| Callsign | UAL1996 |
|---|---|
| Flight time | 0h 44m |
| Altitude | 26000 |
| Route | SWPFX3 FILLI DCT FLLGG STOCR4 |
| Aircraft | A319/M-FAA/L |
Departure
| Time | 2026-05-05 02:01 |
|---|---|
| Airport | Charleston International Airport (KCHS) |
Arrival
| Time | 2026-05-05 02:46 |
|---|---|
| Airport | Charlotte Douglas International Airport (KCLT) |
| Time | Latitude | Longitude | Altitude | Speed | Heading |
|---|---|---|---|---|---|
| 2026-05-05 01:23 | 32.88652 | -80.03764 | 38 ft | 0 kts | 168° |
| 2026-05-05 01:46 | 32.88655 | -80.03764 | 38 ft | 2 kts | 168° |
| 2026-05-05 01:46 | 32.88671 | -80.03768 | 37 ft | 2 kts | 178° |
| 2026-05-05 01:47 | 32.88687 | -80.03770 | 38 ft | 2 kts | 179° |
| 2026-05-05 01:47 | 32.88703 | -80.03769 | 38 ft | 2 kts | 179° |
| 2026-05-05 01:47 | 32.88719 | -80.03765 | 37 ft | 2 kts | 191° |
| 2026-05-05 01:47 | 32.88734 | -80.03758 | 35 ft | 2 kts | 217° |
| 2026-05-05 01:48 | 32.88746 | -80.03745 | 38 ft | 2 kts | 249° |
| 2026-05-05 01:48 | 32.88752 | -80.03728 | 35 ft | 1 kts | 273° |
| 2026-05-05 01:48 | 32.88752 | -80.03725 | 35 ft | 0 kts | 268° |
| 2026-05-05 01:50 | 32.88752 | -80.03732 | 35 ft | 3 kts | 268° |
| 2026-05-05 01:50 | 32.88752 | -80.03735 | 36 ft | 0 kts | 268° |
| 2026-05-05 01:51 | 32.88750 | -80.03741 | 37 ft | 3 kts | 260° |
| 2026-05-05 01:51 | 32.88742 | -80.03781 | 36 ft | 7 kts | 251° |
| 2026-05-05 01:51 | 32.88705 | -80.03860 | 38 ft | 15 kts | 233° |
| 2026-05-05 01:51 | 32.88626 | -80.03964 | 39 ft | 16 kts | 253° |
| 2026-05-05 01:52 | 32.88677 | -80.04087 | 41 ft | 19 kts | 265° |
| 2026-05-05 01:52 | 32.88586 | -80.04236 | 43 ft | 25 kts | 230° |
| 2026-05-05 01:52 | 32.88488 | -80.04414 | 43 ft | 17 kts | 259° |
| 2026-05-05 01:52 | 32.88502 | -80.04572 | 42 ft | 22 kts | 292° |
| 2026-05-05 01:53 | 32.88569 | -80.04627 | 43 ft | 0 kts | 354° |
| 2026-05-05 01:53 | 32.88576 | -80.04628 | 43 ft | 3 kts | 351° |
| 2026-05-05 01:53 | 32.88627 | -80.04653 | 42 ft | 16 kts | 332° |
| 2026-05-05 01:54 | 32.88770 | -80.04679 | 39 ft | 24 kts | 27° |
| 2026-05-05 01:54 | 32.88939 | -80.04595 | 43 ft | 28 kts | 23° |
| 2026-05-05 01:54 | 32.89133 | -80.04494 | 47 ft | 32 kts | 24° |
| 2026-05-05 01:54 | 32.89360 | -80.04464 | 51 ft | 35 kts | 2° |
| 2026-05-05 01:55 | 32.89601 | -80.04454 | 51 ft | 31 kts | 0° |
| 2026-05-05 01:55 | 32.89748 | -80.04453 | 54 ft | 27 kts | 0° |
| 2026-05-05 01:55 | 32.90007 | -80.04448 | 54 ft | 29 kts | 2° |
| 2026-05-05 01:55 | 32.90227 | -80.04443 | 51 ft | 24 kts | 1° |
| 2026-05-05 01:56 | 32.90376 | -80.04440 | 53 ft | 21 kts | 358° |
| 2026-05-05 01:56 | 32.90473 | -80.04496 | 53 ft | 13 kts | 332° |
| 2026-05-05 01:56 | 32.90608 | -80.04592 | 55 ft | 30 kts | 325° |
| 2026-05-05 01:56 | 32.90620 | -80.04602 | 55 ft | 31 kts | 326° |
| 2026-05-05 01:57 | 32.90721 | -80.04679 | 54 ft | 36 kts | 328° |
| 2026-05-05 01:57 | 32.90950 | -80.04850 | 58 ft | 40 kts | 327° |
| 2026-05-05 01:57 | 32.91102 | -80.04967 | 60 ft | 15 kts | 328° |
| 2026-05-05 01:57 | 32.91158 | -80.05008 | 60 ft | 0 kts | 329° |
| 2026-05-05 01:58 | 32.91165 | -80.05010 | 53 ft | 0 kts | 348° |
| 2026-05-05 01:59 | 32.91170 | -80.05010 | 55 ft | 3 kts | 359° |
| 2026-05-05 01:59 | 32.91190 | -80.05000 | 59 ft | 5 kts | 33° |
| 2026-05-05 01:59 | 32.91219 | -80.04954 | 59 ft | 7 kts | 59° |
| 2026-05-05 02:00 | 32.91266 | -80.04859 | 62 ft | 20 kts | 59° |
| 2026-05-05 02:00 | 32.91242 | -80.04764 | 64 ft | 0 kts | 147° |
| 2026-05-05 02:01 | 32.91240 | -80.04762 | 64 ft | 2 kts | 147° |
| 2026-05-05 02:01 | 32.90979 | -80.04565 | 64 ft | 94 kts | 147° |
| 2026-05-05 02:01 | 32.90185 | -80.03970 | 182 ft | 157 kts | 148° |
| 2026-05-05 02:01 | 32.89264 | -80.03260 | 1031 ft | 158 kts | 147° |
| 2026-05-05 02:02 | 32.88373 | -80.02507 | 1732 ft | 157 kts | 146° |
| 2026-05-05 02:02 | 32.87481 | -80.01737 | 2365 ft | 159 kts | 146° |
| 2026-05-05 02:02 | 32.86741 | -80.00759 | 2999 ft | 164 kts | 115° |
| 2026-05-05 02:02 | 32.86644 | -79.99391 | 3500 ft | 178 kts | 73° |
| 2026-05-05 02:03 | 32.87439 | -79.98201 | 3830 ft | 200 kts | 26° |
| 2026-05-05 02:03 | 32.88860 | -79.97771 | 4187 ft | 225 kts | 7° |
| 2026-05-05 02:03 | 32.90477 | -79.97509 | 4731 ft | 250 kts | 5° |
| 2026-05-05 02:03 | 32.92271 | -79.97248 | 5512 ft | 266 kts | 5° |
| 2026-05-05 02:04 | 32.94134 | -79.96975 | 6538 ft | 273 kts | 6° |
| 2026-05-05 02:04 | 32.96030 | -79.96684 | 7583 ft | 277 kts | 6° |
| 2026-05-05 02:04 | 32.97961 | -79.96377 | 8606 ft | 282 kts | 6° |
| 2026-05-05 02:04 | 32.99916 | -79.96060 | 9591 ft | 286 kts | 6° |
| 2026-05-05 02:05 | 33.01920 | -79.95733 | 10363 ft | 300 kts | 6° |
| 2026-05-05 02:05 | 33.04069 | -79.95383 | 10767 ft | 323 kts | 7° |
| 2026-05-05 02:05 | 33.06346 | -79.95006 | 11416 ft | 335 kts | 7° |
| 2026-05-05 02:05 | 33.08671 | -79.94618 | 12230 ft | 340 kts | 7° |
| 2026-05-05 02:06 | 33.11025 | -79.94224 | 13121 ft | 339 kts | 7° |
| 2026-05-05 02:06 | 33.13291 | -79.93848 | 14605 ft | 319 kts | 7° |
| 2026-05-05 02:06 | 33.15423 | -79.93494 | 16074 ft | 299 kts | 7° |
| 2026-05-05 02:06 | 33.17406 | -79.93165 | 17487 ft | 277 kts | 6° |
| 2026-05-05 02:07 | 33.19263 | -79.92857 | 18723 ft | 264 kts | 6° |
| 2026-05-05 02:07 | 33.21073 | -79.92560 | 19560 ft | 263 kts | 6° |
| 2026-05-05 02:07 | 33.22888 | -79.92262 | 20273 ft | 265 kts | 6° |
| 2026-05-05 02:07 | 33.24721 | -79.91957 | 20936 ft | 268 kts | 6° |
| 2026-05-05 02:08 | 33.26560 | -79.91651 | 21559 ft | 271 kts | 6° |
| 2026-05-05 02:08 | 33.28445 | -79.91340 | 22151 ft | 277 kts | 6° |
| 2026-05-05 02:08 | 33.30427 | -79.91016 | 22321 ft | 299 kts | 6° |
| 2026-05-05 02:08 | 33.32568 | -79.90667 | 22453 ft | 320 kts | 7° |
| 2026-05-05 02:09 | 33.34846 | -79.90291 | 22582 ft | 341 kts | 7° |
| 2026-05-05 02:09 | 33.37256 | -79.89893 | 22710 ft | 359 kts | 7° |
| 2026-05-05 02:09 | 33.39774 | -79.89325 | 22838 ft | 377 kts | 12° |
| 2026-05-05 02:09 | 33.42385 | -79.88599 | 22978 ft | 394 kts | 12° |
| 2026-05-05 02:10 | 33.45087 | -79.87841 | 23357 ft | 402 kts | 12° |
| 2026-05-05 02:10 | 33.47827 | -79.87073 | 23850 ft | 406 kts | 12° |
| 2026-05-05 02:10 | 33.50590 | -79.86305 | 24362 ft | 410 kts | 12° |
| 2026-05-05 02:10 | 33.53386 | -79.85531 | 24865 ft | 413 kts | 12° |
| 2026-05-05 02:11 | 33.56193 | -79.84752 | 25360 ft | 416 kts | 12° |
| 2026-05-05 02:11 | 33.59027 | -79.83965 | 25828 ft | 419 kts | 12° |
| 2026-05-05 02:11 | 33.61871 | -79.83176 | 25975 ft | 419 kts | 12° |
| 2026-05-05 02:11 | 33.64676 | -79.82397 | 26009 ft | 411 kts | 12° |
| 2026-05-05 02:12 | 33.67462 | -79.81624 | 26009 ft | 408 kts | 12° |
| 2026-05-05 02:12 | 33.72942 | -79.80096 | 26009 ft | 407 kts | 12° |
| 2026-05-05 02:12 | 33.75704 | -79.79324 | 26009 ft | 407 kts | 12° |
| 2026-05-05 02:13 | 33.78463 | -79.78567 | 26009 ft | 407 kts | 10° |
| 2026-05-05 02:13 | 33.81274 | -79.78293 | 26009 ft | 405 kts | 356° |
| 2026-05-05 02:13 | 33.84047 | -79.78790 | 26010 ft | 404 kts | 343° |
| 2026-05-05 02:13 | 33.86650 | -79.80032 | 26009 ft | 402 kts | 330° |
| 2026-05-05 02:14 | 33.88939 | -79.81939 | 26005 ft | 401 kts | 317° |
| 2026-05-05 02:14 | 33.90839 | -79.84382 | 26003 ft | 401 kts | 309° |
| 2026-05-05 02:14 | 33.92638 | -79.87007 | 26009 ft | 410 kts | 309° |
| 2026-05-05 02:14 | 33.94458 | -79.89661 | 25741 ft | 410 kts | 309° |
| 2026-05-05 02:15 | 33.96296 | -79.92344 | 24615 ft | 420 kts | 309° |
| 2026-05-05 02:15 | 33.98153 | -79.95061 | 23878 ft | 418 kts | 309° |
| 2026-05-05 02:15 | 34.00151 | -79.97585 | 23158 ft | 415 kts | 319° |
| 2026-05-05 02:15 | 34.02502 | -79.99546 | 22813 ft | 404 kts | 330° |
| 2026-05-05 02:16 | 34.04982 | -80.01032 | 22578 ft | 393 kts | 333° |
| 2026-05-05 02:16 | 34.07415 | -80.02465 | 22331 ft | 387 kts | 333° |
| 2026-05-05 02:16 | 34.09833 | -80.03892 | 22301 ft | 386 kts | 333° |
| 2026-05-05 02:16 | 34.12219 | -80.05303 | 22300 ft | 386 kts | 333° |
| 2026-05-05 02:17 | 34.14632 | -80.06729 | 22301 ft | 386 kts | 333° |
| 2026-05-05 02:17 | 34.17036 | -80.08148 | 22300 ft | 386 kts | 333° |
| 2026-05-05 02:17 | 34.19452 | -80.09577 | 22301 ft | 386 kts | 333° |
| 2026-05-05 02:17 | 34.21860 | -80.11006 | 22301 ft | 386 kts | 333° |
| 2026-05-05 02:18 | 34.24272 | -80.12432 | 22301 ft | 386 kts | 333° |
| 2026-05-05 02:18 | 34.26683 | -80.13855 | 22301 ft | 386 kts | 333° |
| 2026-05-05 02:18 | 34.29100 | -80.15281 | 22300 ft | 386 kts | 333° |
| 2026-05-05 02:18 | 34.31511 | -80.16707 | 22301 ft | 386 kts | 333° |
| 2026-05-05 02:19 | 34.33919 | -80.18134 | 22301 ft | 386 kts | 333° |
| 2026-05-05 02:19 | 34.36327 | -80.19562 | 22300 ft | 386 kts | 333° |
| 2026-05-05 02:19 | 34.38737 | -80.20992 | 22300 ft | 386 kts | 333° |
| 2026-05-05 02:19 | 34.41149 | -80.22423 | 22301 ft | 386 kts | 333° |
| 2026-05-05 02:20 | 34.43559 | -80.23855 | 22301 ft | 386 kts | 333° |
| 2026-05-05 02:20 | 34.45967 | -80.25291 | 22074 ft | 384 kts | 333° |
| 2026-05-05 02:20 | 34.48367 | -80.26722 | 21468 ft | 385 kts | 333° |
| 2026-05-05 02:20 | 34.50770 | -80.28152 | 20895 ft | 381 kts | 333° |
| 2026-05-05 02:21 | 34.53103 | -80.29541 | 20054 ft | 376 kts | 333° |
| 2026-05-05 02:21 | 34.55453 | -80.30942 | 19454 ft | 375 kts | 333° |
| 2026-05-05 02:21 | 34.57780 | -80.32327 | 18860 ft | 372 kts | 333° |
| 2026-05-05 02:21 | 34.60058 | -80.33723 | 18583 ft | 360 kts | 329° |
| 2026-05-05 02:22 | 34.62078 | -80.35461 | 18198 ft | 352 kts | 321° |
| 2026-05-05 02:22 | 34.63986 | -80.37303 | 17749 ft | 348 kts | 321° |
| 2026-05-05 02:22 | 34.65875 | -80.39126 | 17233 ft | 346 kts | 321° |
| 2026-05-05 02:22 | 34.67750 | -80.40934 | 16767 ft | 343 kts | 321° |
| 2026-05-05 02:23 | 34.69612 | -80.42729 | 16301 ft | 340 kts | 321° |
| 2026-05-05 02:23 | 34.71459 | -80.44509 | 15821 ft | 337 kts | 321° |
| 2026-05-05 02:23 | 34.73285 | -80.46288 | 15294 ft | 336 kts | 320° |
| 2026-05-05 02:23 | 34.75096 | -80.48072 | 14765 ft | 334 kts | 320° |
| 2026-05-05 02:24 | 34.76895 | -80.49852 | 14258 ft | 332 kts | 320° |
| 2026-05-05 02:24 | 34.78679 | -80.51616 | 13745 ft | 330 kts | 320° |
| 2026-05-05 02:24 | 34.80456 | -80.53367 | 13236 ft | 327 kts | 320° |
| 2026-05-05 02:24 | 34.82200 | -80.55084 | 13049 ft | 315 kts | 320° |
| 2026-05-05 02:25 | 34.83875 | -80.56732 | 12877 ft | 304 kts | 320° |
| 2026-05-05 02:25 | 34.85503 | -80.58344 | 12590 ft | 299 kts | 320° |
| 2026-05-05 02:25 | 34.87074 | -80.59932 | 12343 ft | 297 kts | 319° |
| 2026-05-05 02:25 | 34.88651 | -80.61544 | 12092 ft | 295 kts | 319° |
| 2026-05-05 02:26 | 34.90219 | -80.63154 | 11842 ft | 294 kts | 319° |
| 2026-05-05 02:26 | 34.91784 | -80.64765 | 11591 ft | 293 kts | 319° |
| 2026-05-05 02:26 | 34.93339 | -80.66363 | 11340 ft | 292 kts | 319° |
| 2026-05-05 02:26 | 34.94889 | -80.67953 | 11090 ft | 291 kts | 319° |
| 2026-05-05 02:27 | 34.96433 | -80.69537 | 10838 ft | 290 kts | 319° |
| 2026-05-05 02:27 | 34.97974 | -80.71116 | 10589 ft | 289 kts | 319° |
| 2026-05-05 02:27 | 34.99508 | -80.72687 | 10339 ft | 287 kts | 319° |
| 2026-05-05 02:27 | 35.01039 | -80.74255 | 10089 ft | 286 kts | 319° |
| 2026-05-05 02:28 | 35.02555 | -80.75821 | 9949 ft | 285 kts | 318° |
| 2026-05-05 02:28 | 35.04053 | -80.77404 | 9953 ft | 285 kts | 318° |
| 2026-05-05 02:28 | 35.05549 | -80.79000 | 9955 ft | 286 kts | 318° |
| 2026-05-05 02:28 | 35.07060 | -80.80579 | 9954 ft | 286 kts | 322° |
| 2026-05-05 02:29 | 35.08768 | -80.81728 | 9953 ft | 275 kts | 338° |
| 2026-05-05 02:29 | 35.10584 | -80.82246 | 9954 ft | 262 kts | 353° |
| 2026-05-05 02:29 | 35.12359 | -80.82396 | 9954 ft | 250 kts | 355° |
| 2026-05-05 02:29 | 35.14048 | -80.82537 | 9953 ft | 237 kts | 355° |
| 2026-05-05 02:30 | 35.15654 | -80.82672 | 9882 ft | 228 kts | 354° |
| 2026-05-05 02:30 | 35.17221 | -80.82805 | 9708 ft | 223 kts | 354° |
| 2026-05-05 02:30 | 35.18763 | -80.82936 | 9459 ft | 221 kts | 354° |
| 2026-05-05 02:30 | 35.20293 | -80.83063 | 9184 ft | 220 kts | 354° |
| 2026-05-05 02:31 | 35.21774 | -80.83185 | 9041 ft | 211 kts | 354° |
| 2026-05-05 02:31 | 35.23211 | -80.83306 | 8774 ft | 208 kts | 354° |
| 2026-05-05 02:31 | 35.24723 | -80.83428 | 8045 ft | 227 kts | 355° |
| 2026-05-05 02:31 | 35.26351 | -80.83557 | 7438 ft | 238 kts | 355° |
| 2026-05-05 02:32 | 35.28010 | -80.83700 | 7029 ft | 239 kts | 354° |
| 2026-05-05 02:32 | 35.29660 | -80.83854 | 6659 ft | 237 kts | 354° |
| 2026-05-05 02:32 | 35.31302 | -80.84017 | 6290 ft | 236 kts | 354° |
| 2026-05-05 02:32 | 35.32933 | -80.84182 | 5913 ft | 235 kts | 353° |
| 2026-05-05 02:33 | 35.34555 | -80.84351 | 5544 ft | 233 kts | 353° |
| 2026-05-05 02:33 | 35.36171 | -80.84524 | 5164 ft | 232 kts | 354° |
| 2026-05-05 02:33 | 35.37775 | -80.84694 | 4792 ft | 231 kts | 353° |
| 2026-05-05 02:33 | 35.39367 | -80.84864 | 4425 ft | 229 kts | 353° |
| 2026-05-05 02:34 | 35.40950 | -80.85035 | 4048 ft | 228 kts | 353° |
| 2026-05-05 02:34 | 35.42524 | -80.85209 | 3952 ft | 226 kts | 353° |
| 2026-05-05 02:34 | 35.44098 | -80.85383 | 3956 ft | 228 kts | 353° |
| 2026-05-05 02:34 | 35.45678 | -80.85558 | 3955 ft | 228 kts | 353° |
| 2026-05-05 02:35 | 35.47258 | -80.85732 | 3955 ft | 228 kts | 353° |
| 2026-05-05 02:35 | 35.48837 | -80.85907 | 3955 ft | 228 kts | 353° |
| 2026-05-05 02:35 | 35.50395 | -80.86077 | 3956 ft | 228 kts | 353° |
| 2026-05-05 02:35 | 35.51971 | -80.86248 | 3955 ft | 228 kts | 353° |
| 2026-05-05 02:36 | 35.53038 | -80.86363 | 3956 ft | 228 kts | 353° |
| 2026-05-05 02:36 | 35.54615 | -80.86535 | 3955 ft | 228 kts | 353° |
| 2026-05-05 02:36 | 35.56693 | -80.86888 | 3948 ft | 227 kts | 338° |
| 2026-05-05 02:36 | 35.57928 | -80.88024 | 3955 ft | 224 kts | 304° |
| 2026-05-05 02:37 | 35.58365 | -80.89186 | 3954 ft | 223 kts | 282° |
| 2026-05-05 02:37 | 35.58051 | -80.91522 | 3947 ft | 200 kts | 236° |
| 2026-05-05 02:37 | 35.57401 | -80.92260 | 3971 ft | 181 kts | 210° |
| 2026-05-05 02:37 | 35.56280 | -80.92695 | 3947 ft | 158 kts | 194° |
| 2026-05-05 02:38 | 35.55241 | -80.92938 | 3951 ft | 149 kts | 192° |
| 2026-05-05 02:38 | 35.54119 | -80.93185 | 3973 ft | 178 kts | 192° |
| 2026-05-05 02:38 | 35.52856 | -80.93465 | 3961 ft | 188 kts | 192° |
| 2026-05-05 02:38 | 35.51558 | -80.93756 | 3954 ft | 190 kts | 192° |
| 2026-05-05 02:39 | 35.50258 | -80.94048 | 3956 ft | 190 kts | 192° |
| 2026-05-05 02:39 | 35.48961 | -80.94356 | 3955 ft | 190 kts | 193° |
| 2026-05-05 02:39 | 35.47684 | -80.94680 | 3954 ft | 190 kts | 193° |
| 2026-05-05 02:39 | 35.46393 | -80.95012 | 3956 ft | 190 kts | 193° |
| 2026-05-05 02:40 | 35.45092 | -80.95321 | 3955 ft | 190 kts | 188° |
| 2026-05-05 02:40 | 35.43765 | -80.95386 | 3956 ft | 192 kts | 180° |
| 2026-05-05 02:40 | 35.42431 | -80.95319 | 3957 ft | 192 kts | 178° |
| 2026-05-05 02:40 | 35.41103 | -80.95216 | 3956 ft | 191 kts | 178° |
| 2026-05-05 02:41 | 35.39772 | -80.95104 | 3952 ft | 191 kts | 177° |
| 2026-05-05 02:41 | 35.38465 | -80.94992 | 3820 ft | 181 kts | 178° |
| 2026-05-05 02:41 | 35.37240 | -80.94886 | 3623 ft | 174 kts | 178° |
| 2026-05-05 02:41 | 35.36046 | -80.94783 | 3408 ft | 171 kts | 178° |
| 2026-05-05 02:42 | 35.34871 | -80.94682 | 3183 ft | 169 kts | 178° |
| 2026-05-05 02:42 | 35.33727 | -80.94581 | 2953 ft | 159 kts | 178° |
| 2026-05-05 02:42 | 35.32664 | -80.94467 | 2743 ft | 146 kts | 177° |
| 2026-05-05 02:42 | 35.31700 | -80.94368 | 2554 ft | 135 kts | 179° |
| 2026-05-05 02:43 | 35.30784 | -80.94319 | 2353 ft | 130 kts | 178° |
| 2026-05-05 02:43 | 35.29884 | -80.94254 | 2168 ft | 129 kts | 178° |
| 2026-05-05 02:43 | 35.28993 | -80.94167 | 2017 ft | 128 kts | 178° |
| 2026-05-05 02:43 | 35.28104 | -80.94093 | 1863 ft | 128 kts | 180° |
| 2026-05-05 02:44 | 35.27220 | -80.94027 | 1716 ft | 128 kts | 177° |
| 2026-05-05 02:44 | 35.26337 | -80.93927 | 1532 ft | 128 kts | 176° |
| 2026-05-05 02:44 | 35.25450 | -80.93858 | 1349 ft | 127 kts | 178° |
| 2026-05-05 02:44 | 35.24568 | -80.93781 | 1207 ft | 126 kts | 178° |
| 2026-05-05 02:45 | 35.23689 | -80.93714 | 1074 ft | 126 kts | 178° |
| 2026-05-05 02:45 | 35.22813 | -80.93633 | 856 ft | 126 kts | 176° |
| 2026-05-05 02:45 | 35.21946 | -80.93563 | 741 ft | 124 kts | 176° |
| 2026-05-05 02:45 | 35.21121 | -80.93482 | 718 ft | 91 kts | 174° |
| 2026-05-05 02:46 | 35.20792 | -80.93472 | 717 ft | 6 kts | 182° |
| 2026-05-05 02:46 | 35.20783 | -80.93488 | 718 ft | 0 kts | 250° |
| 2026-05-05 02:46 | 35.20777 | -80.93535 | 716 ft | 18 kts | 267° |
| 2026-05-05 02:46 | 35.20802 | -80.93687 | 718 ft | 16 kts | 337° |
| 2026-05-05 02:47 | 35.20917 | -80.93700 | 720 ft | 18 kts | 355° |
| 2026-05-05 02:47 | 35.20961 | -80.93749 | 719 ft | 0 kts | 263° |
| 2026-05-05 02:47 | 32.91242 | -80.04764 | 59 ft | 5 kts | 147° |